sensor_id;sensor_type;location;lat;lon;timestamp;pressure;altitude;pressure_sealevel;temperature;humidity
21129;BME280;10722;51.910;8.352;2023-01-29T00:01:53;102243.25;;;-2.13;100.00
21129;BME280;10722;51.910;8.352;2023-01-29T00:04:38;102232.13;;;-2.32;100.00
21129;BME280;10722;51.910;8.352;2023-01-29T00:07:23;102232.94;;;-2.14;100.00
21129;BME280;10722;51.910;8.352;2023-01-29T00:10:08;102234.50;;;-2.34;100.00
21129;BME280;10722;51.910;8.352;2023-01-29T00:12:54;102233.91;;;-2.31;100.00
21129;BME280;10722;51.910;8.352;2023-01-29T00:15:39;102225.25;;;-2.24;100.00
21129;BME280;10722;51.910;8.352;2023-01-29T00:18:24;102227.78;;;-2.24;100.00
21129;BME280;10722;51.910;8.352;2023-01-29T00:21:11;102218.41;;;-2.34;100.00
21129;BME280;10722;51.910;8.352;2023-01-29T00:23:57;102218.84;;;-2.30;100.00
21129;BME280;10722;51.910;8.352;2023-01-29T00:26:43;102227.59;;;-2.17;100.00
21129;BME280;10722;51.910;8.352;2023-01-29T00:29:28;102222.53;;;-2.17;100.00
21129;BME280;10722;51.910;8.352;2023-01-29T00:32:13;102217.50;;;-2.26;100.00
21129;BME280;10722;51.910;8.352;2023-01-29T00:34:58;102217.81;;;-2.32;100.00
21129;BME280;10722;51.910;8.352;2023-01-29T00:37:43;102212.66;;;-2.42;100.00
21129;BME280;10722;51.910;8.352;2023-01-29T00:40:29;102222.81;;;-2.42;100.00
21129;BME280;10722;51.910;8.352;2023-01-29T00:43:14;102220.38;;;-2.40;100.00
21129;BME280;10722;51.910;8.352;2023-01-29T00:45:59;102229.47;;;-2.42;100.00
21129;BME280;10722;51.910;8.352;2023-01-29T00:48:44;102232.25;;;-2.58;100.00
21129;BME280;10722;51.910;8.352;2023-01-29T00:51:30;102237.03;;;-2.61;100.00
21129;BME280;10722;51.910;8.352;2023-01-29T00:54:14;102242.81;;;-2.62;100.00
21129;BME280;10722;51.910;8.352;2023-01-29T00:57:00;102234.56;;;-2.42;100.00
21129;BME280;10722;51.910;8.352;2023-01-29T00:59:46;102235.59;;;-2.40;100.00
21129;BME280;10722;51.910;8.352;2023-01-29T01:02:31;102229.88;;;-2.65;100.00
21129;BME280;10722;51.910;8.352;2023-01-29T01:05:17;102234.34;;;-2.72;100.00
21129;BME280;10722;51.910;8.352;2023-01-29T01:08:02;102239.97;;;-2.57;100.00
21129;BME280;10722;51.910;8.352;2023-01-29T01:11:03;102243.81;;;-2.43;100.00
21129;BME280;10722;51.910;8.352;2023-01-29T01:13:49;102228.31;;;-2.46;100.00
21129;BME280;10722;51.910;8.352;2023-01-29T01:16:35;102222.97;;;-2.49;100.00
21129;BME280;10722;51.910;8.352;2023-01-29T01:19:20;102222.03;;;-2.41;100.00
21129;BME280;10722;51.910;8.352;2023-01-29T01:22:05;102220.66;;;-2.74;100.00
21129;BME280;10722;51.910;8.352;2023-01-29T01:24:50;102212.50;;;-2.88;100.00
21129;BME280;10722;51.910;8.352;2023-01-29T01:27:35;102212.66;;;-2.87;100.00
21129;BME280;10722;51.910;8.352;2023-01-29T01:30:20;102210.13;;;-2.87;100.00
21129;BME280;10722;51.910;8.352;2023-01-29T01:33:06;102198.06;;;-2.89;100.00
21129;BME280;10722;51.910;8.352;2023-01-29T01:35:51;102203.16;;;-2.98;100.00
21129;BME280;10722;51.910;8.352;2023-01-29T01:38:37;102183.63;;;-3.08;100.00
21129;BME280;10722;51.910;8.352;2023-01-29T01:41:22;102195.09;;;-3.03;100.00
21129;BME280;10722;51.910;8.352;2023-01-29T01:47:36;102203.47;;;-3.12;100.00
21129;BME280;10722;51.910;8.352;2023-01-29T01:50:29;102193.78;;;-3.17;100.00
21129;BME280;10722;51.910;8.352;2023-01-29T01:53:20;102198.84;;;-3.17;100.00
21129;BME280;10722;51.910;8.352;2023-01-29T01:56:10;102207.91;;;-3.19;100.00
21129;BME280;10722;51.910;8.352;2023-01-29T01:58:57;102207.59;;;-3.13;100.00
21129;BME280;10722;51.910;8.352;2023-01-29T02:01:46;102218.19;;;-3.08;100.00
21129;BME280;10722;51.910;8.352;2023-01-29T02:04:33;102218.19;;;-3.08;100.00
21129;BME280;10722;51.910;8.352;2023-01-29T02:07:18;102224.31;;;-3.06;100.00
21129;BME280;10722;51.910;8.352;2023-01-29T02:10:14;102224.00;;;-3.09;100.00
21129;BME280;10722;51.910;8.352;2023-01-29T02:13:01;102224.72;;;-3.10;100.00
21129;BME280;10722;51.910;8.352;2023-01-29T02:15:46;102231.31;;;-3.12;100.00
21129;BME280;10722;51.910;8.352;2023-01-29T02:18:31;102229.66;;;-3.12;100.00
21129;BME280;10722;51.910;8.352;2023-01-29T02:22:05;102234.13;;;-3.09;100.00
21129;BME280;10722;51.910;8.352;2023-01-29T02:25:01;102222.38;;;-3.09;100.00
21129;BME280;10722;51.910;8.352;2023-01-29T02:37:03;102244.97;;;-3.02;100.00
21129;BME280;10722;51.910;8.352;2023-01-29T02:40:06;102240.66;;;-2.94;100.00
21129;BME280;10722;51.910;8.352;2023-01-29T02:43:14;102251.84;;;-2.92;100.00
21129;BME280;10722;51.910;8.352;2023-01-29T02:52:08;102248.09;;;-2.78;100.00
21129;BME280;10722;51.910;8.352;2023-01-29T02:55:00;102251.34;;;-2.79;100.00
21129;BME280;10722;51.910;8.352;2023-01-29T02:57:50;102239.72;;;-2.77;100.00
21129;BME280;10722;51.910;8.352;2023-01-29T03:00:43;102243.63;;;-2.81;100.00
21129;BME280;10722;51.910;8.352;2023-01-29T03:03:36;102231.28;;;-2.86;100.00
21129;BME280;10722;51.910;8.352;2023-01-29T03:06:38;102234.41;;;-2.98;100.00
21129;BME280;10722;51.910;8.352;2023-01-29T03:09:33;102226.94;;;-2.96;100.00
21129;BME280;10722;51.910;8.352;2023-01-29T03:12:25;102229.78;;;-2.93;100.00
21129;BME280;10722;51.910;8.352;2023-01-29T03:15:19;102233.63;;;-2.88;100.00
21129;BME280;10722;51.910;8.352;2023-01-29T03:18:10;102229.19;;;-2.90;100.00
21129;BME280;10722;51.910;8.352;2023-01-29T03:21:01;102237.69;;;-2.90;100.00
21129;BME280;10722;51.910;8.352;2023-01-29T03:23:47;102236.16;;;-2.88;100.00
21129;BME280;10722;51.910;8.352;2023-01-29T03:26:32;102226.34;;;-2.94;100.00
21129;BME280;10722;51.910;8.352;2023-01-29T03:29:17;102230.97;;;-2.81;100.00
21129;BME280;10722;51.910;8.352;2023-01-29T03:32:03;102222.63;;;-2.88;100.00
21129;BME280;10722;51.910;8.352;2023-01-29T03:34:52;102225.16;;;-2.88;100.00
21129;BME280;10722;51.910;8.352;2023-01-29T03:37:43;102221.88;;;-2.96;100.00
21129;BME280;10722;51.910;8.352;2023-01-29T03:40:36;102217.09;;;-2.93;100.00
21129;BME280;10722;51.910;8.352;2023-01-29T03:46:37;102218.28;;;-2.81;100.00
21129;BME280;10722;51.910;8.352;2023-01-29T03:53:24;102218.84;;;-2.66;100.00
21129;BME280;10722;51.910;8.352;2023-01-29T03:56:21;102201.63;;;-2.79;100.00
21129;BME280;10722;51.910;8.352;2023-01-29T03:59:31;102201.91;;;-2.93;100.00
21129;BME280;10722;51.910;8.352;2023-01-29T04:02:22;102206.38;;;-2.90;100.00
21129;BME280;10722;51.910;8.352;2023-01-29T04:05:13;102204.75;;;-2.81;100.00
21129;BME280;10722;51.910;8.352;2023-01-29T04:08:05;102204.75;;;-2.81;100.00
21129;BME280;10722;51.910;8.352;2023-01-29T04:10:53;102203.25;;;-2.88;100.00
21129;BME280;10722;51.910;8.352;2023-01-29T04:13:40;102198.75;;;-2.82;100.00
21129;BME280;10722;51.910;8.352;2023-01-29T04:16:33;102185.97;;;-2.83;100.00
21129;BME280;10722;51.910;8.352;2023-01-29T04:19:20;102179.13;;;-2.84;100.00
21129;BME280;10722;51.910;8.352;2023-01-29T04:22:20;102181.97;;;-2.90;100.00
21129;BME280;10722;51.910;8.352;2023-01-29T04:25:10;102162.28;;;-2.84;100.00
21129;BME280;10722;51.910;8.352;2023-01-29T04:28:04;102152.19;;;-2.92;100.00
21129;BME280;10722;51.910;8.352;2023-01-29T04:31:07;102150.34;;;-2.85;100.00
21129;BME280;10722;51.910;8.352;2023-01-29T04:34:12;102142.91;;;-2.83;100.00
21129;BME280;10722;51.910;8.352;2023-01-29T04:37:27;102132.50;;;-2.86;100.00
21129;BME280;10722;51.910;8.352;2023-01-29T04:43:45;102111.38;;;-3.04;100.00
21129;BME280;10722;51.910;8.352;2023-01-29T04:46:35;102096.50;;;-3.01;100.00
21129;BME280;10722;51.910;8.352;2023-01-29T04:58:36;102075.50;;;-3.00;100.00
21129;BME280;10722;51.910;8.352;2023-01-29T05:01:26;102076.84;;;-3.04;100.00
21129;BME280;10722;51.910;8.352;2023-01-29T05:04:15;102085.13;;;-2.96;100.00
21129;BME280;10722;51.910;8.352;2023-01-29T05:07:07;102079.34;;;-2.95;100.00
21129;BME280;10722;51.910;8.352;2023-01-29T05:09:54;102093.19;;;-2.91;100.00
21129;BME280;10722;51.910;8.352;2023-01-29T05:12:42;102103.50;;;-2.71;100.00
21129;BME280;10722;51.910;8.352;2023-01-29T05:15:34;102098.06;;;-2.57;100.00
21129;BME280;10722;51.910;8.352;2023-01-29T05:18:21;102100.84;;;-2.45;100.00
21129;BME280;10722;51.910;8.352;2023-01-29T05:21:07;102104.34;;;-2.34;100.00
21129;BME280;10722;51.910;8.352;2023-01-29T05:24:13;102104.06;;;-2.37;100.00
21129;BME280;10722;51.910;8.352;2023-01-29T05:26:59;102100.88;;;-2.26;100.00
21129;BME280;10722;51.910;8.352;2023-01-29T05:29:46;102112.50;;;-2.28;100.00
21129;BME280;10722;51.910;8.352;2023-01-29T05:32:31;102116.38;;;-2.23;100.00
21129;BME280;10722;51.910;8.352;2023-01-29T05:35:16;102110.97;;;-2.17;100.00
21129;BME280;10722;51.910;8.352;2023-01-29T05:38:02;102118.56;;;-2.17;100.00
21129;BME280;10722;51.910;8.352;2023-01-29T05:40:47;102116.19;;;-2.16;100.00
21129;BME280;10722;51.910;8.352;2023-01-29T05:43:33;102113.03;;;-2.13;100.00
21129;BME280;10722;51.910;8.352;2023-01-29T05:46:18;102115.03;;;-2.19;100.00
21129;BME280;10722;51.910;8.352;2023-01-29T05:49:04;102101.63;;;-2.27;100.00
21129;BME280;10722;51.910;8.352;2023-01-29T05:51:49;102100.94;;;-2.35;100.00
21129;BME280;10722;51.910;8.352;2023-01-29T05:54:35;102104.78;;;-2.30;100.00
21129;BME280;10722;51.910;8.352;2023-01-29T05:57:20;102112.16;;;-2.22;100.00
21129;BME280;10722;51.910;8.352;2023-01-29T06:00:06;102112.47;;;-2.19;100.00
21129;BME280;10722;51.910;8.352;2023-01-29T06:02:52;102119.56;;;-2.34;100.00
21129;BME280;10722;51.910;8.352;2023-01-29T06:05:38;102122.09;;;-2.34;100.00
21129;BME280;10722;51.910;8.352;2023-01-29T06:08:23;102129.81;;;-2.24;100.00
21129;BME280;10722;51.910;8.352;2023-01-29T06:11:10;102132.19;;;-2.26;100.00
21129;BME280;10722;51.910;8.352;2023-01-29T06:13:56;102143.97;;;-2.26;100.00
21129;BME280;10722;51.910;8.352;2023-01-29T06:16:42;102129.53;;;-2.27;100.00
21129;BME280;10722;51.910;8.352;2023-01-29T06:19:26;102125.34;;;-2.27;100.00
21129;BME280;10722;51.910;8.352;2023-01-29T06:22:11;102113.44;;;-2.28;100.00
21129;BME280;10722;51.910;8.352;2023-01-29T06:24:57;102110.47;;;-2.32;100.00
21129;BME280;10722;51.910;8.352;2023-01-29T06:27:41;102112.78;;;-2.44;100.00
21129;BME280;10722;51.910;8.352;2023-01-29T06:30:26;102132.84;;;-2.37;100.00
21129;BME280;10722;51.910;8.352;2023-01-29T06:33:12;102141.69;;;-2.42;100.00
21129;BME280;10722;51.910;8.352;2023-01-29T06:35:58;102138.41;;;-2.41;100.00
21129;BME280;10722;51.910;8.352;2023-01-29T06:38:45;102142.09;;;-2.37;100.00
21129;BME280;10722;51.910;8.352;2023-01-29T06:41:30;102144.78;;;-2.36;100.00
21129;BME280;10722;51.910;8.352;2023-01-29T06:44:15;102145.34;;;-2.30;100.00
21129;BME280;10722;51.910;8.352;2023-01-29T06:47:00;102145.28;;;-2.21;100.00
21129;BME280;10722;51.910;8.352;2023-01-29T06:49:45;102145.66;;;-2.35;100.00
21129;BME280;10722;51.910;8.352;2023-01-29T06:52:31;102151.19;;;-2.31;100.00
21129;BME280;10722;51.910;8.352;2023-01-29T06:55:16;102153.22;;;-2.27;100.00
21129;BME280;10722;51.910;8.352;2023-01-29T06:58:09;102149.75;;;-2.18;100.00
21129;BME280;10722;51.910;8.352;2023-01-29T07:01:02;102142.78;;;-2.02;100.00
21129;BME280;10722;51.910;8.352;2023-01-29T07:03:49;102144.78;;;-2.08;100.00
21129;BME280;10722;51.910;8.352;2023-01-29T07:06:34;102134.53;;;-2.18;100.00
21129;BME280;10722;51.910;8.352;2023-01-29T07:09:19;102129.47;;;-2.18;100.00
21129;BME280;10722;51.910;8.352;2023-01-29T07:12:05;102138.94;;;-2.07;100.00
21129;BME280;10722;51.910;8.352;2023-01-29T07:14:50;102122.28;;;-1.95;100.00
21129;BME280;10722;51.910;8.352;2023-01-29T07:17:36;102121.56;;;-1.94;100.00
21129;BME280;10722;51.910;8.352;2023-01-29T07:20:23;102126.63;;;-1.94;100.00
21129;BME280;10722;51.910;8.352;2023-01-29T07:23:12;102124.09;;;-1.94;100.00
21129;BME280;10722;51.910;8.352;2023-01-29T07:26:04;102124.75;;;-1.86;100.00
21129;BME280;10722;51.910;8.352;2023-01-29T07:28:50;102129.69;;;-1.88;100.00
21129;BME280;10722;51.910;8.352;2023-01-29T07:31:36;102133.81;;;-1.79;100.00
21129;BME280;10722;51.910;8.352;2023-01-29T07:34:21;102130.94;;;-1.74;100.00
21129;BME280;10722;51.910;8.352;2023-01-29T07:37:07;102133.59;;;-1.72;100.00
21129;BME280;10722;51.910;8.352;2023-01-29T07:39:52;102117.50;;;-1.73;100.00
21129;BME280;10722;51.910;8.352;2023-01-29T07:42:38;102113.84;;;-1.66;100.00
21129;BME280;10722;51.910;8.352;2023-01-29T07:45:23;102114.13;;;-1.63;100.00
21129;BME280;10722;51.910;8.352;2023-01-29T07:48:10;102090.38;;;-1.64;100.00
21129;BME280;10722;51.910;8.352;2023-01-29T07:50:56;102105.75;;;-1.62;100.00
21129;BME280;10722;51.910;8.352;2023-01-29T07:53:41;102103.22;;;-1.62;100.00
21129;BME280;10722;51.910;8.352;2023-01-29T07:56:26;102108.91;;;-1.65;100.00
21129;BME280;10722;51.910;8.352;2023-01-29T07:59:12;102099.78;;;-1.63;100.00
21129;BME280;10722;51.910;8.352;2023-01-29T08:01:57;102090.53;;;-1.62;100.00
21129;BME280;10722;51.910;8.352;2023-01-29T08:04:42;102083.19;;;-1.59;100.00
21129;BME280;10722;51.910;8.352;2023-01-29T08:07:27;102082.41;;;-1.58;100.00
21129;BME280;10722;51.910;8.352;2023-01-29T08:10:12;102076.19;;;-1.62;100.00
21129;BME280;10722;51.910;8.352;2023-01-29T08:12:59;102074.16;;;-1.66;100.00
21129;BME280;10722;51.910;8.352;2023-01-29T08:15:45;102067.97;;;-1.59;100.00
21129;BME280;10722;51.910;8.352;2023-01-29T08:18:31;102075.72;;;-1.58;100.00
21129;BME280;10722;51.910;8.352;2023-01-29T08:21:17;102069.00;;;-1.57;100.00
21129;BME280;10722;51.910;8.352;2023-01-29T08:24:02;102063.69;;;-1.50;100.00
21129;BME280;10722;51.910;8.352;2023-01-29T08:26:47;102049.06;;;-1.52;100.00
21129;BME280;10722;51.910;8.352;2023-01-29T08:29:32;102051.75;;;-1.51;100.00
21129;BME280;10722;51.910;8.352;2023-01-29T08:32:18;102049.34;;;-1.49;100.00
21129;BME280;10722;51.910;8.352;2023-01-29T08:35:03;102042.91;;;-1.46;100.00
21129;BME280;10722;51.910;8.352;2023-01-29T08:37:59;102032.59;;;-1.47;100.00
21129;BME280;10722;51.910;8.352;2023-01-29T08:40:45;102029.84;;;-1.40;100.00
21129;BME280;10722;51.910;8.352;2023-01-29T08:43:30;102032.22;;;-1.42;100.00
21129;BME280;10722;51.910;8.352;2023-01-29T08:46:15;102037.56;;;-1.39;100.00
21129;BME280;10722;51.910;8.352;2023-01-29T08:49:00;102040.53;;;-1.34;100.00
21129;BME280;10722;51.910;8.352;2023-01-29T08:51:46;102037.09;;;-1.24;100.00
21129;BME280;10722;51.910;8.352;2023-01-29T08:54:31;102033.56;;;-1.26;100.00
21129;BME280;10722;51.910;8.352;2023-01-29T08:57:16;102030.25;;;-1.25;100.00
21129;BME280;10722;51.910;8.352;2023-01-29T09:00:01;102023.28;;;-1.28;100.00
21129;BME280;10722;51.910;8.352;2023-01-29T09:02:47;102014.66;;;-1.20;100.00
21129;BME280;10722;51.910;8.352;2023-01-29T09:05:33;102001.06;;;-1.20;100.00
21129;BME280;10722;51.910;8.352;2023-01-29T09:08:19;101991.94;;;-1.18;100.00
21129;BME280;10722;51.910;8.352;2023-01-29T09:11:05;101989.66;;;-1.15;100.00
21129;BME280;10722;51.910;8.352;2023-01-29T09:13:50;101979.88;;;-1.10;100.00
21129;BME280;10722;51.910;8.352;2023-01-29T09:16:35;101981.78;;;-1.08;100.00
21129;BME280;10722;51.910;8.352;2023-01-29T09:19:21;101984.22;;;-0.99;100.00
21129;BME280;10722;51.910;8.352;2023-01-29T09:22:06;101985.09;;;-0.99;100.00
21129;BME280;10722;51.910;8.352;2023-01-29T09:24:53;101978.88;;;-1.02;100.00
21129;BME280;10722;51.910;8.352;2023-01-29T09:27:38;101981.66;;;-0.99;100.00
21129;BME280;10722;51.910;8.352;2023-01-29T09:30:23;101975.97;;;-0.97;100.00
21129;BME280;10722;51.910;8.352;2023-01-29T09:33:09;101974.94;;;-0.88;100.00
21129;BME280;10722;51.910;8.352;2023-01-29T09:35:54;101960.97;;;-0.94;100.00
21129;BME280;10722;51.910;8.352;2023-01-29T09:38:38;101960.72;;;-0.97;100.00
21129;BME280;10722;51.910;8.352;2023-01-29T09:47:32;101971.41;;;-0.80;100.00
21129;BME280;10722;51.910;8.352;2023-01-29T09:50:21;101966.06;;;-0.73;100.00
21129;BME280;10722;51.910;8.352;2023-01-29T09:53:29;101962.22;;;-0.68;100.00
21129;BME280;10722;51.910;8.352;2023-01-29T09:56:19;101964.03;;;-0.67;100.00
21129;BME280;10722;51.910;8.352;2023-01-29T09:59:09;101961.09;;;-0.61;100.00
21129;BME280;10722;51.910;8.352;2023-01-29T10:02:16;101963.88;;;-0.48;100.00
21129;BME280;10722;51.910;8.352;2023-01-29T10:05:30;101953.97;;;-0.55;100.00
21129;BME280;10722;51.910;8.352;2023-01-29T10:21:08;101932.19;;;-0.31;100.00
21129;BME280;10722;51.910;8.352;2023-01-29T10:27:07;101925.94;;;-0.25;100.00
21129;BME280;10722;51.910;8.352;2023-01-29T10:29:57;101908.66;;;-0.29;100.00
21129;BME280;10722;51.910;8.352;2023-01-29T10:32:45;101908.63;;;-0.18;100.00
21129;BME280;10722;51.910;8.352;2023-01-29T10:35:38;101894.63;;;-0.13;100.00
21129;BME280;10722;51.910;8.352;2023-01-29T10:38:37;101895.75;;;-0.10;100.00
21129;BME280;10722;51.910;8.352;2023-01-29T10:44:48;101886.00;;;0.07;100.00
21129;BME280;10722;51.910;8.352;2023-01-29T10:50:51;101875.69;;;0.05;100.00
21129;BME280;10722;51.910;8.352;2023-01-29T11:02:32;101846.19;;;0.07;100.00
21129;BME280;10722;51.910;8.352;2023-01-29T11:05:37;101837.00;;;0.09;99.98
21129;BME280;10722;51.910;8.352;2023-01-29T11:08:30;101830.91;;;0.07;99.92
21129;BME280;10722;51.910;8.352;2023-01-29T11:11:18;101828.72;;;0.12;99.91
21129;BME280;10722;51.910;8.352;2023-01-29T11:14:08;101831.38;;;0.13;99.74
21129;BME280;10722;51.910;8.352;2023-01-29T11:16:54;101826.53;;;0.16;99.77
21129;BME280;10722;51.910;8.352;2023-01-29T11:19:42;101831.09;;;0.20;99.62
21129;BME280;10722;51.910;8.352;2023-01-29T11:22:29;101809.84;;;0.20;99.74
21129;BME280;10722;51.910;8.352;2023-01-29T11:28:01;101814.16;;;0.21;99.67
21129;BME280;10722;51.910;8.352;2023-01-29T11:30:49;101810.38;;;0.16;99.43
21129;BME280;10722;51.910;8.352;2023-01-29T11:33:35;101804.06;;;0.22;99.55
21129;BME280;10722;51.910;8.352;2023-01-29T11:36:37;101806.88;;;0.26;99.63
21129;BME280;10722;51.910;8.352;2023-01-29T11:39:24;101804.56;;;0.29;99.63
21129;BME280;10722;51.910;8.352;2023-01-29T11:42:18;101796.28;;;0.31;99.33
21129;BME280;10722;51.910;8.352;2023-01-29T11:45:24;101786.09;;;0.31;99.01
21129;BME280;10722;51.910;8.352;2023-01-29T11:48:15;101788.09;;;0.35;98.47
21129;BME280;10722;51.910;8.352;2023-01-29T11:51:01;101783.59;;;0.43;98.85
21129;BME280;10722;51.910;8.352;2023-01-29T11:53:55;101782.28;;;0.48;98.66
21129;BME280;10722;51.910;8.352;2023-01-29T11:56:44;101769.97;;;0.42;98.11
21129;BME280;10722;51.910;8.352;2023-01-29T11:59:39;101765.63;;;0.41;98.05
21129;BME280;10722;51.910;8.352;2023-01-29T12:02:32;101751.38;;;0.43;98.01
21129;BME280;10722;51.910;8.352;2023-01-29T12:05:22;101737.75;;;0.43;98.08
21129;BME280;10722;51.910;8.352;2023-01-29T12:08:16;101737.75;;;0.43;98.23
21129;BME280;10722;51.910;8.352;2023-01-29T12:11:13;101731.09;;;0.45;97.99
21129;BME280;10722;51.910;8.352;2023-01-29T12:14:02;101721.69;;;0.44;97.64
21129;BME280;10722;51.910;8.352;2023-01-29T12:19:56;101721.94;;;0.47;97.85
21129;BME280;10722;51.910;8.352;2023-01-29T12:26:15;101712.84;;;0.51;97.65
21129;BME280;10722;51.910;8.352;2023-01-29T12:32:34;101698.47;;;0.51;96.93
21129;BME280;10722;51.910;8.352;2023-01-29T12:35:26;101699.50;;;0.65;97.18
21129;BME280;10722;51.910;8.352;2023-01-29T12:38:17;101679.88;;;0.64;97.09
21129;BME280;10722;51.910;8.352;2023-01-29T12:41:07;101665.03;;;0.58;96.81
21129;BME280;10722;51.910;8.352;2023-01-29T12:44:03;101668.69;;;0.62;96.45
21129;BME280;10722;51.910;8.352;2023-01-29T12:46:53;101653.66;;;0.65;96.59
21129;BME280;10722;51.910;8.352;2023-01-29T12:49:40;101661.28;;;0.65;96.38
21129;BME280;10722;51.910;8.352;2023-01-29T12:55:36;101655.50;;;0.67;96.05
21129;BME280;10722;51.910;8.352;2023-01-29T12:58:29;101650.75;;;0.72;95.85
21129;BME280;10722;51.910;8.352;2023-01-29T13:01:42;101644.00;;;0.61;95.79
21129;BME280;10722;51.910;8.352;2023-01-29T13:04:39;101642.91;;;0.57;96.15
21129;BME280;10722;51.910;8.352;2023-01-29T13:07:30;101649.66;;;0.57;96.22
21129;BME280;10722;51.910;8.352;2023-01-29T13:10:24;101638.47;;;0.55;96.05
21129;BME280;10722;51.910;8.352;2023-01-29T13:13:23;101643.00;;;0.59;96.27
21129;BME280;10722;51.910;8.352;2023-01-29T13:16:12;101638.81;;;0.59;96.14
21129;BME280;10722;51.910;8.352;2023-01-29T13:19:04;101643.22;;;0.62;96.47
21129;BME280;10722;51.910;8.352;2023-01-29T13:21:53;101642.34;;;0.61;96.35
21129;BME280;10722;51.910;8.352;2023-01-29T13:24:41;101641.56;;;0.62;96.34
21129;BME280;10722;51.910;8.352;2023-01-29T13:27:34;101635.34;;;0.59;96.34
21129;BME280;10722;51.910;8.352;2023-01-29T13:30:27;101633.59;;;0.58;95.99
21129;BME280;10722;51.910;8.352;2023-01-29T13:33:22;101633.59;;;0.58;96.16
21129;BME280;10722;51.910;8.352;2023-01-29T13:36:21;101627.63;;;0.57;95.84
21129;BME280;10722;51.910;8.352;2023-01-29T13:39:18;101621.66;;;0.57;95.81
21129;BME280;10722;51.910;8.352;2023-01-29T13:42:15;101609.00;;;0.58;95.59
21129;BME280;10722;51.910;8.352;2023-01-29T13:45:03;101607.34;;;0.59;95.91
21129;BME280;10722;51.910;8.352;2023-01-29T13:47:51;101603.25;;;0.61;95.72
21129;BME280;10722;51.910;8.352;2023-01-29T13:50:40;101604.91;;;0.60;95.59
21129;BME280;10722;51.910;8.352;2023-01-29T13:53:31;101592.06;;;0.59;95.36
21129;BME280;10722;51.910;8.352;2023-01-29T13:56:41;101593.06;;;0.61;95.65
21129;BME280;10722;51.910;8.352;2023-01-29T13:59:50;101601.72;;;0.63;95.43
21129;BME280;10722;51.910;8.352;2023-01-29T14:02:35;101591.75;;;0.66;95.21
21129;BME280;10722;51.910;8.352;2023-01-29T14:17:28;101569.16;;;0.71;94.09
21129;BME280;10722;51.910;8.352;2023-01-29T14:20:19;101552.28;;;0.73;94.37
21129;BME280;10722;51.910;8.352;2023-01-29T14:23:06;101558.50;;;0.76;94.04
21129;BME280;10722;51.910;8.352;2023-01-29T14:25:52;101565.38;;;0.77;93.84
21129;BME280;10722;51.910;8.352;2023-01-29T14:28:39;101559.25;;;0.75;93.34
21129;BME280;10722;51.910;8.352;2023-01-29T14:31:57;101551.41;;;0.72;93.41
21129;BME280;10722;51.910;8.352;2023-01-29T14:34:46;101554.09;;;0.74;93.78
21129;BME280;10722;51.910;8.352;2023-01-29T14:37:35;101545.78;;;0.76;93.21
21129;BME280;10722;51.910;8.352;2023-01-29T14:40:24;101557.38;;;0.73;93.21
21129;BME280;10722;51.910;8.352;2023-01-29T14:43:29;101553.28;;;0.75;93.02
21129;BME280;10722;51.910;8.352;2023-01-29T14:49:54;101553.28;;;0.75;93.12
21129;BME280;10722;51.910;8.352;2023-01-29T14:52:41;101548.88;;;0.72;93.17
21129;BME280;10722;51.910;8.352;2023-01-29T14:55:36;101545.44;;;0.72;92.92
21129;BME280;10722;51.910;8.352;2023-01-29T14:58:26;101546.53;;;0.75;93.15
21129;BME280;10722;51.910;8.352;2023-01-29T15:01:38;101546.53;;;0.75;93.12
21129;BME280;10722;51.910;8.352;2023-01-29T15:04:28;101538.81;;;0.74;93.28
21129;BME280;10722;51.910;8.352;2023-01-29T15:07:22;101534.59;;;0.74;93.30
21129;BME280;10722;51.910;8.352;2023-01-29T15:10:39;101543.44;;;0.79;93.18
21129;BME280;10722;51.910;8.352;2023-01-29T15:13:40;101535.00;;;0.80;93.12
21129;BME280;10722;51.910;8.352;2023-01-29T15:16:59;101533.03;;;0.76;92.84
21129;BME280;10722;51.910;8.352;2023-01-29T15:19:47;101525.28;;;0.75;92.84
21129;BME280;10722;51.910;8.352;2023-01-29T15:22:41;101534.59;;;0.74;92.99
21129;BME280;10722;51.910;8.352;2023-01-29T15:25:30;101528.69;;;0.75;93.47
21129;BME280;10722;51.910;8.352;2023-01-29T15:28:18;101526.94;;;0.74;92.99
21129;BME280;10722;51.910;8.352;2023-01-29T15:31:10;101527.94;;;0.76;92.92
21129;BME280;10722;51.910;8.352;2023-01-29T15:33:56;101526.81;;;0.73;93.34
21129;BME280;10722;51.910;8.352;2023-01-29T15:36:42;101527.03;;;0.76;93.07
21129;BME280;10722;51.910;8.352;2023-01-29T15:39:28;101526.94;;;0.74;93.42
21129;BME280;10722;51.910;8.352;2023-01-29T15:42:13;101531.25;;;0.75;93.50
21129;BME280;10722;51.910;8.352;2023-01-29T15:44:58;101537.22;;;0.76;93.46
21129;BME280;10722;51.910;8.352;2023-01-29T15:47:43;101513.53;;;0.77;93.37
21129;BME280;10722;51.910;8.352;2023-01-29T15:50:30;101535.47;;;0.75;93.26
21129;BME280;10722;51.910;8.352;2023-01-29T15:53:19;101516.75;;;0.74;93.50
21129;BME280;10722;51.910;8.352;2023-01-29T15:56:09;101512.34;;;0.72;93.56
21129;BME280;10722;51.910;8.352;2023-01-29T15:58:57;101509.88;;;0.73;93.59
21129;BME280;10722;51.910;8.352;2023-01-29T16:01:44;101517.50;;;0.73;93.68
21129;BME280;10722;51.910;8.352;2023-01-29T16:04:30;101514.22;;;0.74;93.63
21129;BME280;10722;51.910;8.352;2023-01-29T16:07:15;101503.16;;;0.74;93.30
21129;BME280;10722;51.910;8.352;2023-01-29T16:10:02;101503.22;;;0.75;93.55
21129;BME280;10722;51.910;8.352;2023-01-29T16:12:48;101498.81;;;0.73;93.55
21129;BME280;10722;51.910;8.352;2023-01-29T16:15:37;101498.13;;;0.75;93.67
21129;BME280;10722;51.910;8.352;2023-01-29T16:18:27;101503.91;;;0.73;93.77
21129;BME280;10722;51.910;8.352;2023-01-29T16:21:23;101496.38;;;0.74;93.77
21129;BME280;10722;51.910;8.352;2023-01-29T16:24:11;101488.63;;;0.73;93.65
21129;BME280;10722;51.910;8.352;2023-01-29T16:26:59;101504.91;;;0.75;93.74
21129;BME280;10722;51.910;8.352;2023-01-29T16:29:45;101481.97;;;0.75;93.92
21129;BME280;10722;51.910;8.352;2023-01-29T16:32:31;101479.53;;;0.76;93.90